Forbing, Louisiana
Current Conditions -  °F | °C
As of 5:56 AM on Monday 24 Nov 2014 (Local Time) from KSHV Reporting Station
Clear Clear  
Wind Chill: 43°   Ceiling: Unl
Heat Index: 48°   Visibility: 10mi
Dew Point: 40°   Wind: 12mph
Humidity: 74%   Direction: 320°NW
Pressure: 29.88"   Gusts: NA
Location:  32.3873°N, 93.7356°W
Report Text: KSHV 241156Z 32010KT 10SM CLR 09/04 A2988 RMK AO2 SLP116 70024 T00890044 10150 20089 51027
Loading
Personal Weather Stations






























Interactive Weather Map New forecast layout! Learn more

10-Day Weather Forecast

Advertisements
Track Severe Weather on mobile